Foxtrot — V7YQ5 — position and weather

sailwx.info

Track history (hours):
 
Tides and Currents Weather Stations Pressure Air Temp Water Temp Dewpoint Dewpoint Depression Visibility Wind Speed Wind Dir Waves Ship Positions

Foxtrot

Last reported at 2017-Aug-25 17:33 UTC. Time now 2017-Sep-22 01:17 UTC.
Position N 27°11' W 014°16'.
Warning: this ship's position is 27 days out of date.

Length 180 m; draft 9.3 m.

Type: Cargo ship. MMSI: 538004710.

Date/timePositionNaut miles runAvg speedWind from/ knotsBaromVisibWave heightAir tempDewpointWater temp
2017-Aug-25 17:33N 27°11' W 014°16'3614.0
2017-Aug-25 14:57N 27°42' W 013°54'1314.2
2017-Aug-25 14:00N 27°54' W 013°46'713.7
2017-Aug-25 13:29N 27°60' W 013°42'713.6
2017-Aug-25 13:00N 28°05' W 013°37'713.5
2017-Aug-25 12:30N 28°10' W 013°33'713.5
2017-Aug-25 12:00N 28°16' W 013°28'713.6
2017-Aug-25 11:30N 28°21' W 013°23'913.8
2017-Aug-25 10:48N 28°29' W 013°17'513.8
2017-Aug-25 10:27N 28°32' W 013°13'1013.8
2017-Aug-25 09:44N 28°40' W 013°06'313.6
2017-Aug-25 09:30N 28°43' W 013°04'713.6
2017-Aug-25 09:00N 28°48' W 012°59'713.3
2017-Aug-25 08:30N 28°53' W 012°55'713.4
2017-Aug-25 08:00N 28°58' W 012°50'713.3
2017-Aug-25 07:30N 29°04' W 012°45'713.3
2017-Aug-25 07:00N 29°09' W 012°41'713.4
2017-Aug-25 06:27N 29°15' W 012°35'713.5
2017-Aug-25 05:58N 29°20' W 012°31'613.5
2017-Aug-25 05:30N 29°25' W 012°26'713.5
2017-Aug-25 05:00N 29°30' W 012°22'813.7
2017-Aug-25 04:27N 29°36' W 012°16'613.6
2017-Aug-25 04:00N 29°41' W 012°12'4213.7
2017-Aug-25 00:56N 30°14' W 011°42'1013.7
2017-Aug-25 00:12N 30°22' W 011°35'313.6
2017-Aug-24 23:59N 30°25' W 011°33'713.6
2017-Aug-24 23:28N 30°30' W 011°28'613.8
2017-Aug-24 23:00N 30°35' W 011°23'913.9
2017-Aug-24 22:23N 30°42' W 011°17'513.9
2017-Aug-24 22:00N 30°46' W 011°13'2813.8
2017-Aug-24 20:00N 31°08' W 010°53'1313.9
2017-Aug-24 19:02N 31°19' W 010°44'014.0
2017-Aug-24 19:00N 31°19' W 010°44'813.3
2017-Aug-24 18:26N 31°25' W 010°38'613.1
2017-Aug-24 18:00N 31°29' W 010°34'713.4
2017-Aug-24 17:30N 31°35' W 010°29'713.6
2017-Aug-24 17:00N 31°40' W 010°24'713.1
2017-Aug-24 16:30N 31°45' W 010°19'713.3
2017-Aug-24 16:00N 31°50' W 010°14'814.0
2017-Aug-24 15:27N 31°56' W 010°09'714.2
2017-Aug-24 14:56N 32°02' W 010°04'614.1
2017-Aug-24 14:30N 32°07' W 009°59'714.1
2017-Aug-24 14:00N 32°12' W 009°54'914.0
2017-Aug-24 13:22N 32°19' W 009°48'613.7
2017-Aug-24 12:56N 32°24' W 009°44'1413.7
2017-Aug-24 11:55N 32°35' W 009°33'713.8
2017-Aug-24 11:26N 32°40' W 009°28'713.7
2017-Aug-24 10:57N 32°46' W 009°24'713.8
2017-Aug-24 10:27N 32°51' W 009°19'713.9
2017-Aug-24 09:58N 32°56' W 009°14'613.8
2017-Aug-24 09:30N 33°01' W 009°09'714.1
2017-Aug-24 09:00N 33°07' W 009°04'914.1
2017-Aug-24 08:20N 33°14' W 008°57'1714.2
2017-Aug-24 07:06N 33°27' W 008°42'214.2
2017-Aug-24 07:00N 33°28' W 008°41'714.3
2017-Aug-24 06:30N 33°33' W 008°35'714.3
2017-Aug-24 05:59N 33°38' W 008°29'1214.2
2017-Aug-24 05:08N 33°47' W 008°19'214.0
2017-Aug-24 05:00N 33°49' W 008°18'913.9
2017-Aug-24 04:21N 33°55' W 008°10'1213.8
2017-Aug-24 03:27N 34°04' W 008°00'613.7
2017-Aug-24 03:00N 34°09' W 007°55'713.6
2017-Aug-24 02:29N 34°14' W 007°49'3513.6
2017-Aug-23 23:56N 34°39' W 007°20'613.5
2017-Aug-23 23:28N 34°43' W 007°15'10912.9
2017-Aug-23 14:59N 35°58' W 005°36'613.2
2017-Aug-23 14:30N 35°59' W 005°28'17713.1
2017-Aug-23 01:03N 36°28' W 001°52'112.4
2017-Aug-23 01:00N 36°28' W 001°51'912.7
2017-Aug-23 00:19N 36°29' W 001°41'412.9
2017-Aug-22 23:58N 36°30' W 001°35'712.9
2017-Aug-22 23:27N 36°30' W 001°27'1313.4
2017-Aug-22 22:26N 36°32' W 001°10'1513.5
2017-Aug-22 21:20N 36°34' W 000°52'413.0
2017-Aug-22 21:00N 36°35' W 000°46'612.9
2017-Aug-22 20:30N 36°36' W 000°38'713.2
2017-Aug-22 20:00N 36°36' W 000°30'713.4
2017-Aug-22 19:30N 36°37' W 000°22'713.3
2017-Aug-22 18:59N 36°38' W 000°13'813.1
2017-Aug-22 18:22N 36°39' W 000°03'513.3
2017-Aug-22 18:00N 36°40' E 000°03'713.3
2017-Aug-22 17:30N 36°41' E 000°11'713.5
2017-Aug-22 16:58N 36°42' E 000°20'613.4
2017-Aug-22 16:30N 36°43' E 000°27'913.3
2017-Aug-22 15:51N 36°44' E 000°38'14313.8
2017-Aug-22 05:28N 37°03' E 003°35'913.7
2017-Aug-22 04:49N 37°04' E 003°46'2313.5
2017-Aug-22 03:05N 37°07' E 004°15'313.4
2017-Aug-22 02:53N 37°07' E 004°19'1913.3
2017-Aug-22 01:27N 37°10' E 004°42'32512.7
2017-Aug-20 23:57N 37°17' E 011°30'5012.2
2017-Aug-20 19:49N 36°53' E 012°25'412.8
2017-Aug-20 19:30N 36°51' E 012°30'612.7
2017-Aug-20 19:00N 36°48' E 012°37'612.7
2017-Aug-20 18:30N 36°45' E 012°44'912.4
2017-Aug-20 17:45N 36°41' E 012°54'312.6
2017-Aug-20 17:30N 36°40' E 012°57'612.8
2017-Aug-20 17:00N 36°37' E 013°04'912.9
2017-Aug-20 16:16N 36°32' E 013°15'412.9
2017-Aug-20 16:00N 36°31' E 013°19'612.9
2017-Aug-20 15:30N 36°28' E 013°26'612.9
2017-Aug-20 15:00N 36°25' E 013°33'612.8
2017-Aug-20 14:30N 36°22' E 013°40'612.9
2017-Aug-20 14:00N 36°19' E 013°47'612.8
2017-Aug-20 13:30N 36°16' E 013°55'612.8
2017-Aug-20 13:00N 36°13' E 014°02'713.0
2017-Aug-20 12:30N 36°11' E 014°09'612.8
2017-Aug-20 12:00N 36°08' E 014°16'612.7
2017-Aug-20 11:30N 36°06' E 014°23'612.4
2017-Aug-20 11:00N 36°01' E 014°29'611.7
2017-Aug-20 10:30N 35°57' E 014°34'3 5.2
2017-Aug-20 10:00N 35°57' E 014°37'510.6
2017-Aug-20 09:30N 35°54' E 014°43'3 5.2
2017-Aug-20 09:00N 35°53' E 014°46'0 0.1
2017-Aug-20 08:30N 35°53' E 014°46'0 0.0
2017-Aug-20 08:00N 35°53' E 014°46'0 0.0
2017-Aug-20 07:30N 35°53' E 014°46'0 0.0
2017-Aug-20 07:00N 35°53' E 014°46'0 0.0
2017-Aug-20 06:30N 35°53' E 014°46'0 0.0
2017-Aug-20 06:00N 35°53' E 014°46'0 0.0
2017-Aug-20 05:30N 35°53' E 014°46'0 0.0
2017-Aug-20 05:00N 35°53' E 014°46'0 0.0
2017-Aug-20 04:30N 35°53' E 014°46'0 0.0
2017-Aug-20 04:00N 35°53' E 014°46'0 0.0
2017-Aug-20 03:30N 35°53' E 014°46'0 0.1
2017-Aug-20 03:00N 35°53' E 014°46'0 0.0
2017-Aug-20 02:30N 35°53' E 014°46'0 0.1
2017-Aug-20 02:00N 35°53' E 014°46'0 0.4
2017-Aug-20 01:31N 35°53' E 014°46'3 5.6
2017-Aug-20 01:00N 35°51' E 014°49'5 9.6
2017-Aug-20 00:30N 35°49' E 014°54'612.9
2017-Aug-20 00:01N 35°48' E 015°02'713.5
2017-Aug-19 23:30N 35°49' E 015°10'713.4
2017-Aug-19 23:00N 35°48' E 015°19'713.4
2017-Aug-19 22:30N 35°48' E 015°27'713.1
2017-Aug-19 22:00N 35°46' E 015°35'713.2
2017-Aug-19 21:30N 35°45' E 015°43'713.3
2017-Aug-19 21:00N 35°43' E 015°51'713.4
2017-Aug-19 20:30N 35°42' E 015°59'713.3
2017-Aug-19 20:00N 35°40' E 016°07'713.2
2017-Aug-19 19:30N 35°39' E 016°14'713.1
2017-Aug-19 19:00N 35°37' E 016°22'713.2
2017-Aug-19 18:30N 35°36' E 016°30'613.0
2017-Aug-19 18:01N 35°34' E 016°38'2913.3
2017-Aug-19 15:49N 35°27' E 017°13'413.2
2017-Aug-19 15:30N 35°26' E 017°18'713.4
2017-Aug-19 15:00N 35°25' E 017°26'2213.6
2017-Aug-19 13:23N 35°20' E 017°52'513.7
2017-Aug-19 13:01N 35°19' E 017°58'713.7
2017-Aug-19 12:29N 35°17' E 018°07'713.9
2017-Aug-19 12:01N 35°15' E 018°14'713.7
2017-Aug-19 11:30N 35°14' E 018°23'713.7
2017-Aug-19 11:00N 35°12' E 018°31'713.7
2017-Aug-19 10:30N 35°10' E 018°39'713.6
2017-Aug-19 10:00N 35°09' E 018°47'713.6
2017-Aug-19 09:30N 35°07' E 018°55'1513.3
2017-Aug-19 08:22N 35°04' E 019°13'513.1
2017-Aug-19 08:00N 35°03' E 019°19'  
2017-Aug-16 23:46N 32°09' E 033°48'413.3
2017-Aug-16 23:29N 32°08' E 033°52'613.3
2017-Aug-16 23:00N 32°05' E 033°59'713.4
2017-Aug-16 22:27N 32°02' E 034°07'613.3
2017-Aug-16 22:00N 31°60' E 034°13'813.3
2017-Aug-16 21:22N 31°56' E 034°22'512.8
2017-Aug-16 20:59N 31°54' E 034°28'711.3
2017-Aug-16 20:21N 31°52' E 034°36'3 7.9
2017-Aug-16 20:00N 31°51' E 034°38'1 2.2
2017-Aug-16 19:23N 31°49' E 034°38'0 0.0
2017-Aug-15 19:22N 31°49' E 034°38'  
Track history (hours):
 
Tides and Currents Weather Stations Pressure Air Temp Water Temp Dewpoint Dewpoint Depression Visibility Wind Speed Wind Dir Waves Ship Positions

Foxtrot

Last reported at 2017-Aug-25 17:33 UTC. Time now 2017-Sep-22 01:17 UTC.
Position N 27°11' W 014°16'.
Warning: this ship's position is 27 days out of date.

Length 180 m; draft 9.3 m.

Type: Cargo ship. MMSI: 538004710.

Date/timePositionNaut miles runAvg speedWind from/ knotsBaromVisibWave heightAir tempDewpointWater temp
2017-Aug-25 17:33N 27°11' W 014°16'3614.0
2017-Aug-25 14:57N 27°42' W 013°54'1314.2
2017-Aug-25 14:00N 27°54' W 013°46'713.7
2017-Aug-25 13:29N 27°60' W 013°42'713.6
2017-Aug-25 13:00N 28°05' W 013°37'713.5
2017-Aug-25 12:30N 28°10' W 013°33'713.5
2017-Aug-25 12:00N 28°16' W 013°28'713.6
2017-Aug-25 11:30N 28°21' W 013°23'913.8
2017-Aug-25 10:48N 28°29' W 013°17'513.8
2017-Aug-25 10:27N 28°32' W 013°13'1013.8
2017-Aug-25 09:44N 28°40' W 013°06'313.6
2017-Aug-25 09:30N 28°43' W 013°04'713.6
2017-Aug-25 09:00N 28°48' W 012°59'713.3
2017-Aug-25 08:30N 28°53' W 012°55'713.4
2017-Aug-25 08:00N 28°58' W 012°50'713.3
2017-Aug-25 07:30N 29°04' W 012°45'713.3
2017-Aug-25 07:00N 29°09' W 012°41'713.4
2017-Aug-25 06:27N 29°15' W 012°35'713.5
2017-Aug-25 05:58N 29°20' W 012°31'613.5
2017-Aug-25 05:30N 29°25' W 012°26'713.5
2017-Aug-25 05:00N 29°30' W 012°22'813.7
2017-Aug-25 04:27N 29°36' W 012°16'613.6
2017-Aug-25 04:00N 29°41' W 012°12'4213.7
2017-Aug-25 00:56N 30°14' W 011°42'1013.7
2017-Aug-25 00:12N 30°22' W 011°35'313.6
2017-Aug-24 23:59N 30°25' W 011°33'713.6
2017-Aug-24 23:28N 30°30' W 011°28'613.8
2017-Aug-24 23:00N 30°35' W 011°23'913.9
2017-Aug-24 22:23N 30°42' W 011°17'513.9
2017-Aug-24 22:00N 30°46' W 011°13'2813.8
2017-Aug-24 20:00N 31°08' W 010°53'1313.9
2017-Aug-24 19:02N 31°19' W 010°44'014.0
2017-Aug-24 19:00N 31°19' W 010°44'813.3
2017-Aug-24 18:26N 31°25' W 010°38'613.1
2017-Aug-24 18:00N 31°29' W 010°34'713.4
2017-Aug-24 17:30N 31°35' W 010°29'713.6
2017-Aug-24 17:00N 31°40' W 010°24'713.1
2017-Aug-24 16:30N 31°45' W 010°19'713.3
2017-Aug-24 16:00N 31°50' W 010°14'814.0
2017-Aug-24 15:27N 31°56' W 010°09'714.2
2017-Aug-24 14:56N 32°02' W 010°04'614.1
2017-Aug-24 14:30N 32°07' W 009°59'714.1
2017-Aug-24 14:00N 32°12' W 009°54'914.0
2017-Aug-24 13:22N 32°19' W 009°48'613.7
2017-Aug-24 12:56N 32°24' W 009°44'1413.7
2017-Aug-24 11:55N 32°35' W 009°33'713.8
2017-Aug-24 11:26N 32°40' W 009°28'713.7
2017-Aug-24 10:57N 32°46' W 009°24'713.8
2017-Aug-24 10:27N 32°51' W 009°19'713.9
2017-Aug-24 09:58N 32°56' W 009°14'613.8
2017-Aug-24 09:30N 33°01' W 009°09'714.1
2017-Aug-24 09:00N 33°07' W 009°04'914.1
2017-Aug-24 08:20N 33°14' W 008°57'1714.2
2017-Aug-24 07:06N 33°27' W 008°42'214.2
2017-Aug-24 07:00N 33°28' W 008°41'714.3
2017-Aug-24 06:30N 33°33' W 008°35'714.3
2017-Aug-24 05:59N 33°38' W 008°29'1214.2
2017-Aug-24 05:08N 33°47' W 008°19'214.0
2017-Aug-24 05:00N 33°49' W 008°18'913.9
2017-Aug-24 04:21N 33°55' W 008°10'1213.8
2017-Aug-24 03:27N 34°04' W 008°00'613.7
2017-Aug-24 03:00N 34°09' W 007°55'713.6
2017-Aug-24 02:29N 34°14' W 007°49'3513.6
2017-Aug-23 23:56N 34°39' W 007°20'613.5
2017-Aug-23 23:28N 34°43' W 007°15'10912.9
2017-Aug-23 14:59N 35°58' W 005°36'613.2
2017-Aug-23 14:30N 35°59' W 005°28'17713.1
2017-Aug-23 01:03N 36°28' W 001°52'112.4
2017-Aug-23 01:00N 36°28' W 001°51'912.7
2017-Aug-23 00:19N 36°29' W 001°41'412.9
2017-Aug-22 23:58N 36°30' W 001°35'712.9
2017-Aug-22 23:27N 36°30' W 001°27'1313.4
2017-Aug-22 22:26N 36°32' W 001°10'1513.5
2017-Aug-22 21:20N 36°34' W 000°52'413.0
2017-Aug-22 21:00N 36°35' W 000°46'612.9
2017-Aug-22 20:30N 36°36' W 000°38'713.2
2017-Aug-22 20:00N 36°36' W 000°30'713.4
2017-Aug-22 19:30N 36°37' W 000°22'713.3
2017-Aug-22 18:59N 36°38' W 000°13'813.1
2017-Aug-22 18:22N 36°39' W 000°03'513.3
2017-Aug-22 18:00N 36°40' E 000°03'713.3
2017-Aug-22 17:30N 36°41' E 000°11'713.5
2017-Aug-22 16:58N 36°42' E 000°20'613.4
2017-Aug-22 16:30N 36°43' E 000°27'913.3
2017-Aug-22 15:51N 36°44' E 000°38'14313.8
2017-Aug-22 05:28N 37°03' E 003°35'913.7
2017-Aug-22 04:49N 37°04' E 003°46'2313.5
2017-Aug-22 03:05N 37°07' E 004°15'313.4
2017-Aug-22 02:53N 37°07' E 004°19'1913.3
2017-Aug-22 01:27N 37°10' E 004°42'32512.7
2017-Aug-20 23:57N 37°17' E 011°30'5012.2
2017-Aug-20 19:49N 36°53' E 012°25'412.8
2017-Aug-20 19:30N 36°51' E 012°30'612.7
2017-Aug-20 19:00N 36°48' E 012°37'612.7
2017-Aug-20 18:30N 36°45' E 012°44'912.4
2017-Aug-20 17:45N 36°41' E 012°54'312.6
2017-Aug-20 17:30N 36°40' E 012°57'612.8
2017-Aug-20 17:00N 36°37' E 013°04'912.9
2017-Aug-20 16:16N 36°32' E 013°15'412.9
2017-Aug-20 16:00N 36°31' E 013°19'612.9
2017-Aug-20 15:30N 36°28' E 013°26'612.9
2017-Aug-20 15:00N 36°25' E 013°33'612.8
2017-Aug-20 14:30N 36°22' E 013°40'612.9
2017-Aug-20 14:00N 36°19' E 013°47'612.8
2017-Aug-20 13:30N 36°16' E 013°55'612.8
2017-Aug-20 13:00N 36°13' E 014°02'713.0
2017-Aug-20 12:30N 36°11' E 014°09'612.8
2017-Aug-20 12:00N 36°08' E 014°16'612.7
2017-Aug-20 11:30N 36°06' E 014°23'612.4
2017-Aug-20 11:00N 36°01' E 014°29'611.7
2017-Aug-20 10:30N 35°57' E 014°34'3 5.2
2017-Aug-20 10:00N 35°57' E 014°37'510.6
2017-Aug-20 09:30N 35°54' E 014°43'3 5.2
2017-Aug-20 09:00N 35°53' E 014°46'0 0.1
2017-Aug-20 08:30N 35°53' E 014°46'0 0.0
2017-Aug-20 08:00N 35°53' E 014°46'0 0.0
2017-Aug-20 07:30N 35°53' E 014°46'0 0.0
2017-Aug-20 07:00N 35°53' E 014°46'0 0.0
2017-Aug-20 06:30N 35°53' E 014°46'0 0.0
2017-Aug-20 06:00N 35°53' E 014°46'0 0.0
2017-Aug-20 05:30N 35°53' E 014°46'0 0.0
2017-Aug-20 05:00N 35°53' E 014°46'0 0.0
2017-Aug-20 04:30N 35°53' E 014°46'0 0.0
2017-Aug-20 04:00N 35°53' E 014°46'0 0.0
2017-Aug-20 03:30N 35°53' E 014°46'0 0.1
2017-Aug-20 03:00N 35°53' E 014°46'0 0.0
2017-Aug-20 02:30N 35°53' E 014°46'0 0.1
2017-Aug-20 02:00N 35°53' E 014°46'0 0.4
2017-Aug-20 01:31N 35°53' E 014°46'3 5.6
2017-Aug-20 01:00N 35°51' E 014°49'5 9.6
2017-Aug-20 00:30N 35°49' E 014°54'612.9
2017-Aug-20 00:01N 35°48' E 015°02'713.5
2017-Aug-19 23:30N 35°49' E 015°10'713.4
2017-Aug-19 23:00N 35°48' E 015°19'713.4
2017-Aug-19 22:30N 35°48' E 015°27'713.1
2017-Aug-19 22:00N 35°46' E 015°35'713.2
2017-Aug-19 21:30N 35°45' E 015°43'713.3
2017-Aug-19 21:00N 35°43' E 015°51'713.4
2017-Aug-19 20:30N 35°42' E 015°59'713.3
2017-Aug-19 20:00N 35°40' E 016°07'713.2
2017-Aug-19 19:30N 35°39' E 016°14'713.1
2017-Aug-19 19:00N 35°37' E 016°22'713.2
2017-Aug-19 18:30N 35°36' E 016°30'613.0
2017-Aug-19 18:01N 35°34' E 016°38'2913.3
2017-Aug-19 15:49N 35°27' E 017°13'413.2
2017-Aug-19 15:30N 35°26' E 017°18'713.4
2017-Aug-19 15:00N 35°25' E 017°26'2213.6
2017-Aug-19 13:23N 35°20' E 017°52'513.7
2017-Aug-19 13:01N 35°19' E 017°58'713.7
2017-Aug-19 12:29N 35°17' E 018°07'713.9
2017-Aug-19 12:01N 35°15' E 018°14'713.7
2017-Aug-19 11:30N 35°14' E 018°23'713.7
2017-Aug-19 11:00N 35°12' E 018°31'713.7
2017-Aug-19 10:30N 35°10' E 018°39'713.6
2017-Aug-19 10:00N 35°09' E 018°47'713.6
2017-Aug-19 09:30N 35°07' E 018°55'1513.3
2017-Aug-19 08:22N 35°04' E 019°13'513.1
2017-Aug-19 08:00N 35°03' E 019°19'  
2017-Aug-16 23:46N 32°09' E 033°48'413.3
2017-Aug-16 23:29N 32°08' E 033°52'613.3
2017-Aug-16 23:00N 32°05' E 033°59'713.4
2017-Aug-16 22:27N 32°02' E 034°07'613.3
2017-Aug-16 22:00N 31°60' E 034°13'813.3
2017-Aug-16 21:22N 31°56' E 034°22'512.8
2017-Aug-16 20:59N 31°54' E 034°28'711.3
2017-Aug-16 20:21N 31°52' E 034°36'3 7.9
2017-Aug-16 20:00N 31°51' E 034°38'1 2.2
2017-Aug-16 19:23N 31°49' E 034°38'0 0.0
2017-Aug-15 19:22N 31°49' E 034°38'  

Dump ship's entire track history